createdAt,value
2022-08-23T00:04:22.208Z,25.89
2022-08-23T00:09:35.417Z,25.87
2022-08-23T00:14:43.137Z,25.91
2022-08-23T00:19:49.027Z,25.88
2022-08-23T00:24:51.805Z,25.77
2022-08-23T00:29:56.836Z,25.67
2022-08-23T00:35:00.936Z,25.57
2022-08-23T00:40:05.149Z,25.45
2022-08-23T00:45:32.414Z,25.22
2022-08-23T00:50:42.139Z,25.01
2022-08-23T00:55:47.323Z,24.96
2022-08-23T01:00:54.324Z,24.83
2022-08-23T01:06:02.498Z,24.78
2022-08-23T01:11:10.322Z,24.82
2022-08-23T01:16:19.084Z,24.87
2022-08-23T01:21:28.435Z,24.80
2022-08-23T01:26:35.269Z,24.76
2022-08-23T01:31:38.475Z,24.75
2022-08-23T01:36:43.512Z,24.71
2022-08-23T01:41:47.704Z,24.65
2022-08-23T01:46:50.583Z,24.58
2022-08-23T01:52:00.136Z,24.63
2022-08-23T01:57:06.998Z,24.50
2022-08-23T02:02:11.397Z,24.49
2022-08-23T02:07:14.249Z,24.49
2022-08-23T02:12:18.606Z,24.37
2022-08-23T02:17:22.136Z,24.38
2022-08-23T02:22:25.023Z,24.34
2022-08-23T02:27:29.325Z,24.14
2022-08-23T02:32:32.121Z,23.96
2022-08-23T02:37:35.730Z,23.82
2022-08-23T02:42:41.926Z,23.71
2022-08-23T02:47:46.152Z,23.63
2022-08-23T02:52:55.137Z,23.52
2022-08-23T02:58:00.437Z,23.48
2022-08-23T03:03:03.572Z,23.40
2022-08-23T03:08:06.901Z,23.42
2022-08-23T03:13:19.768Z,23.55
2022-08-23T03:18:25.080Z,23.49
2022-08-23T03:23:28.652Z,23.59
2022-08-23T03:28:34.810Z,23.62
2022-08-23T03:33:39.302Z,23.61
2022-08-23T03:38:42.695Z,23.52
2022-08-23T03:43:47.840Z,23.45
2022-08-23T03:48:52.155Z,23.41
2022-08-23T03:53:55.206Z,23.45
2022-08-23T03:59:01.716Z,23.41
2022-08-23T04:04:05.576Z,23.39
2022-08-23T04:09:11.219Z,23.21
2022-08-23T04:14:16.150Z,23.08
2022-08-23T04:19:19.105Z,22.83
2022-08-23T04:24:34.757Z,22.38
2022-08-23T04:29:39.940Z,22.43
2022-08-23T04:34:45.492Z,22.49
2022-08-23T04:40:08.394Z,22.59
2022-08-23T04:45:18.924Z,22.68
2022-08-23T04:50:25.903Z,22.73
2022-08-23T04:55:52.165Z,22.77
2022-08-23T05:00:56.674Z,22.83
2022-08-23T05:06:04.946Z,22.85
2022-08-23T05:11:14.395Z,23.00
2022-08-23T05:16:19.164Z,22.93
2022-08-23T05:21:31.118Z,22.97
2022-08-23T05:26:34.101Z,22.85
2022-08-23T05:31:38.424Z,22.76
2022-08-23T05:36:47.594Z,22.80
2022-08-23T05:42:02.901Z,22.71
2022-08-23T05:47:11.503Z,22.57
2022-08-23T05:52:41.536Z,22.51
2022-08-23T05:57:45.509Z,22.41
2022-08-23T06:02:50.764Z,22.36
2022-08-23T06:07:55.737Z,22.32
2022-08-23T06:13:00.139Z,22.29
2022-08-23T06:18:05.378Z,22.27
2022-08-23T06:23:08.936Z,22.22
2022-08-23T06:28:15.440Z,22.20
2022-08-23T06:33:20.704Z,22.20
2022-08-23T06:38:58.532Z,22.22
2022-08-23T06:44:22.190Z,22.15
2022-08-23T06:49:52.582Z,22.18
2022-08-23T06:55:21.212Z,22.14
2022-08-23T07:00:37.568Z,22.09
2022-08-23T07:05:50.649Z,22.10
2022-08-23T07:11:00.028Z,22.14
2022-08-23T07:16:03.861Z,22.14
2022-08-23T07:21:09.856Z,22.18
2022-08-23T07:26:17.446Z,22.16
2022-08-23T07:31:22.918Z,22.19
2022-08-23T07:36:28.914Z,22.26
2022-08-23T07:41:32.763Z,22.28
2022-08-23T07:46:39.730Z,22.31
2022-08-23T07:51:48.887Z,22.29
2022-08-23T07:56:52.607Z,22.35
2022-08-23T08:02:14.155Z,22.41
2022-08-23T08:07:20.757Z,22.42
2022-08-23T08:12:32.846Z,22.49
2022-08-23T08:17:42.415Z,22.45
2022-08-23T08:23:07.298Z,22.54
2022-08-23T08:28:28.395Z,22.58
2022-08-23T08:33:34.372Z,22.56
2022-08-23T08:38:47.918Z,22.66
2022-08-23T08:44:04.721Z,22.66
2022-08-23T08:49:15.350Z,22.69
2022-08-23T08:54:23.847Z,22.69
2022-08-23T08:59:36.246Z,22.74
2022-08-23T09:04:39.652Z,22.86
2022-08-23T09:10:26.955Z,22.84
2022-08-23T09:15:55.922Z,22.90
2022-08-23T09:21:01.782Z,22.92
2022-08-23T09:26:18.796Z,22.89
2022-08-23T09:31:39.920Z,22.96
2022-08-23T09:36:44.256Z,22.93
2022-08-23T09:41:48.958Z,22.93
2022-08-23T09:47:07.070Z,22.96
2022-08-23T09:52:22.117Z,22.96
2022-08-23T09:57:34.737Z,23.13
2022-08-23T10:02:37.661Z,23.21
2022-08-23T10:07:57.128Z,23.21
2022-08-23T10:13:02.787Z,23.20
2022-08-23T10:18:12.000Z,23.37
2022-08-23T10:23:29.964Z,23.39
2022-08-23T10:29:00.937Z,23.49
2022-08-23T10:34:29.867Z,23.52
2022-08-23T10:39:33.698Z,23.55
2022-08-23T10:44:49.175Z,23.57
2022-08-23T10:49:55.685Z,23.64
2022-08-23T10:55:06.388Z,23.67
2022-08-23T11:00:18.330Z,23.80
2022-08-23T11:05:27.143Z,23.81
2022-08-23T11:10:56.029Z,23.89
2022-08-23T11:16:14.634Z,24.00
2022-08-23T11:21:50.161Z,24.09
2022-08-23T11:27:07.806Z,24.17
2022-08-23T11:32:38.676Z,24.18
2022-08-23T11:37:57.112Z,24.17
2022-08-23T11:43:12.450Z,24.21
2022-08-23T11:48:25.356Z,24.28
2022-08-23T11:53:45.254Z,24.28
2022-08-23T11:59:08.775Z,24.33
2022-08-23T12:04:31.703Z,24.49
2022-08-23T12:09:55.972Z,24.61
2022-08-23T12:15:00.766Z,24.69
2022-08-23T12:20:16.960Z,24.72
2022-08-23T12:25:23.190Z,24.76
2022-08-23T12:30:29.644Z,24.84
2022-08-23T12:35:41.306Z,24.91
2022-08-23T12:40:46.879Z,24.92
2022-08-23T12:45:52.384Z,24.94
2022-08-23T12:51:04.446Z,24.96
2022-08-23T12:56:11.921Z,24.97
2022-08-23T13:01:22.705Z,24.93
2022-08-23T13:06:31.284Z,24.92
2022-08-23T13:11:37.285Z,24.95
2022-08-23T13:16:44.810Z,25.03
2022-08-23T13:21:53.273Z,25.08
2022-08-23T13:27:13.834Z,25.11
2022-08-23T13:32:27.324Z,25.08
2022-08-23T13:37:33.536Z,25.13
2022-08-23T13:42:38.759Z,25.20
2022-08-23T13:47:47.814Z,25.22
2022-08-23T13:53:13.405Z,25.25
2022-08-23T13:58:25.249Z,25.30
2022-08-23T14:03:29.465Z,25.31
2022-08-23T14:08:33.625Z,25.36
2022-08-23T14:13:37.330Z,25.40
2022-08-23T14:19:16.329Z,25.44
2022-08-23T14:24:05.045Z,25.48
2022-08-23T14:29:07.876Z,25.47
2022-08-23T14:34:18.123Z,25.50
2022-08-23T14:39:22.549Z,25.54
2022-08-23T14:44:29.000Z,25.55
2022-08-23T14:49:36.055Z,25.60
2022-08-23T14:54:40.295Z,25.71
2022-08-23T14:59:43.135Z,25.82
2022-08-23T15:04:45.903Z,25.92
2022-08-23T15:09:54.483Z,25.98
2022-08-23T15:14:57.389Z,26.09
2022-08-23T15:20:00.658Z,26.15
2022-08-23T15:25:05.489Z,26.20
2022-08-23T15:30:09.454Z,26.27
2022-08-23T15:35:12.371Z,26.31
2022-08-23T15:40:17.017Z,26.36
2022-08-23T15:45:20.135Z,26.44
2022-08-23T15:50:27.077Z,26.52
2022-08-23T15:55:33.570Z,26.56
2022-08-23T16:00:36.303Z,26.61
2022-08-23T16:05:41.091Z,26.70
2022-08-23T16:10:45.666Z,26.67
2022-08-23T16:15:49.218Z,26.74
2022-08-23T16:20:54.125Z,26.82
2022-08-23T16:26:01.170Z,26.85
2022-08-23T16:31:04.417Z,26.94
2022-08-23T16:36:08.544Z,26.95
2022-08-23T16:41:13.500Z,26.90
2022-08-23T16:46:17.331Z,26.96
2022-08-23T16:51:21.654Z,26.98
2022-08-23T16:56:25.853Z,27.06
2022-08-23T17:01:29.615Z,27.13
2022-08-23T17:06:32.534Z,27.18
2022-08-23T17:11:37.736Z,27.21
2022-08-23T17:16:41.106Z,27.23
2022-08-23T17:21:44.826Z,27.21
2022-08-23T17:26:49.653Z,27.24
2022-08-23T17:31:52.495Z,27.19
2022-08-23T17:36:56.294Z,27.19
2022-08-23T17:42:00.548Z,27.20
2022-08-23T17:47:07.688Z,27.23
2022-08-23T17:52:11.587Z,27.23
2022-08-23T17:57:16.056Z,27.26
2022-08-23T18:02:20.635Z,27.21
2022-08-23T18:07:23.473Z,27.23
2022-08-23T18:12:28.377Z,27.24
2022-08-23T18:17:31.671Z,27.23
2022-08-23T18:22:34.462Z,27.25
2022-08-23T18:27:56.063Z,27.23
2022-08-23T18:32:58.936Z,27.28
2022-08-23T18:38:02.412Z,27.36
2022-08-23T18:43:07.503Z,27.38
2022-08-23T18:48:12.223Z,27.40
2022-08-23T18:53:15.405Z,27.41
2022-08-23T18:58:21.029Z,27.41
2022-08-23T19:03:25.594Z,27.40
2022-08-23T19:08:28.356Z,27.40
2022-08-23T19:13:33.043Z,27.40
2022-08-23T19:18:36.207Z,27.48
2022-08-23T19:23:39.008Z,27.41
2022-08-23T19:28:43.575Z,27.48
2022-08-23T19:33:46.407Z,27.46
2022-08-23T19:38:49.426Z,27.47
2022-08-23T19:43:53.769Z,27.50
2022-08-23T19:48:56.985Z,27.49
2022-08-23T19:54:10.947Z,27.49
2022-08-23T19:59:19.559Z,27.41
2022-08-23T20:04:23.282Z,27.24
2022-08-23T20:09:28.639Z,27.29
2022-08-23T20:14:33.914Z,27.28
2022-08-23T20:19:37.112Z,27.27
2022-08-23T20:24:51.432Z,27.29
2022-08-23T20:29:56.973Z,27.28
2022-08-23T20:35:00.105Z,27.36
2022-08-23T20:40:03.628Z,27.40
2022-08-23T20:45:09.236Z,27.47
2022-08-23T20:50:12.079Z,27.46
2022-08-23T20:55:15.083Z,27.41
2022-08-23T21:00:19.498Z,27.49
2022-08-23T21:05:22.436Z,27.53
2022-08-23T21:10:27.016Z,27.53
2022-08-23T21:15:31.718Z,27.55
2022-08-23T21:20:34.548Z,27.50
2022-08-23T21:25:37.529Z,27.51
2022-08-23T21:30:41.796Z,27.51
2022-08-23T21:35:45.426Z,27.53
2022-08-23T21:40:55.660Z,27.37
2022-08-23T21:46:00.045Z,27.53
2022-08-23T21:51:02.991Z,27.52
2022-08-23T21:56:05.966Z,27.50
2022-08-23T22:01:10.167Z,27.50
2022-08-23T22:06:14.370Z,27.50
2022-08-23T22:11:17.257Z,27.50
2022-08-23T22:16:22.451Z,27.50
2022-08-23T22:21:26.417Z,27.46
2022-08-23T22:26:29.665Z,27.42
2022-08-23T22:31:35.542Z,27.41
2022-08-23T22:36:38.335Z,27.37
2022-08-23T22:41:41.085Z,27.31
2022-08-23T22:46:45.329Z,27.27
2022-08-23T22:51:49.186Z,27.23
2022-08-23T22:56:58.424Z,27.17
2022-08-23T23:02:04.092Z,27.11
2022-08-23T23:07:07.067Z,27.07
2022-08-23T23:12:09.894Z,27.01
2022-08-23T23:17:14.101Z,26.97
2022-08-23T23:22:16.832Z,26.86
2022-08-23T23:27:19.602Z,26.84
2022-08-23T23:32:23.730Z,26.81
2022-08-23T23:37:26.565Z,26.77
2022-08-23T23:42:29.286Z,26.69
2022-08-23T23:47:33.490Z,26.64
2022-08-23T23:52:36.843Z,26.60
2022-08-23T23:57:39.689Z,26.54
